Airfield :
LOGIN :

Register | Disclaimer

   EN    FR    IT 

 










Legend :    VFR   Marginal VFR   IFR   Intensive IFR   Very Intensive IFR
Visi :
Ceiling :
>= 8 km
>= 3000ft
5 to 8 km
1000 to 3000 ft
1500m to 5 km
500 to 1000 ft
800 to 1500m
200 to 500 ft
< 800m
< 200 ft
Symbols :   Thunderstorms  Fog  Heavy snow  Heavy precipitations  Wind > 20 kt
SIGMETs :     Misc.  Thunderstorms  Icing  Turbulence  Mountain Waves  Volcanic Ashes






- Airport Elevation : 622 ft
- IATA code : SVO


UUEE - Sheremetyevo International

CURRENT METAR :
  • 051100Z 29006MPS 9999 SCT050CB 04/M09 Q1021 R24L/290051 R24R/290051 NOSIG

EXPIRED METARs :
  • 051030Z 27004G10MPS 9999 SCT050CB 02/M07 Q1021 RESHSN R24L/290051 R24R/290051 NOSIG
  • 051000Z 29008G17MPS 260V340 CAVOK 05/M11 Q1021 R24L/CLRD62 R24R/CLRD62 NOSIG
  • 050930Z 30007MPS 270V330 9999 SCT050CB 05/M10 Q1020 R24L/CLRD62 R24R/CLRD62 NOSIG
  • 050900Z 30007G13MPS 260V330 8000 -SHSN BKN038CB 05/M08 Q1020 R24R/CLRD62 NOSIG
  • 050830Z 30006MPS 260V320 9999 SCT048CB 04/M08 Q1021 R24R/CLRD62 NOSIG

TAF AMD TAF UUEE
Valid from the 05 at 10:00 until the 06 at 09:00 UTC


051012Z 0510/0609 31006G12MPS 9999 BKN020 TX05/0510Z TNM04/0603Z
TEMPO 0510/0516 32013G21MPS 0600 +SHSN FEW006 BKN011CB



MET'MAP, your aeronautical weather chart ! - Copyright ORBIFLY December 2007 - Disclaimer

ORBIFLY MET'MAP TEAM :

Programming & Development : Alexandra Zaïnal
Concept & original design : Baudouin d'Aumeries
Assistance for programming : Marc-Olivier Méhu
Technical & hardware support : Manuel Goepfert

Contact : metmap@orbifly.com




SOURCES & CREDITS :

   NOAA